Accueil
METAR-TAF:

METAR-TAF

Aéroports :

Landsberg, Allemagne

latitude: 48-04N, longitude: 010-54E, altitude: 623 m

Observation

Le bulletin a été fait il y a 54 minutes, à 21:20 UTC
Vent 6 kt de sud
Température 8°C
Humidité 76%
Pression 1015 hPa
Visibilité 10 km ou plus
Ciel couvert à une hauteur de 10000 ft

METAR: ETSA 242120Z 19006KT 9999 OVC100 08/04 Q1015 BLU

Heure: 23:14 (22:14 UTC)

Prévision

Le bulletin a été fait il y a 5 heures et 14 minutes, à 17:00 UTC
Prévision valable du 24 à 18 UTC au 25 à 06 UTC
Vent 8 kt de sud
Visibilité 10 km ou plus
Nuages fragmentés à une hauteur de 10000 ft

TAF: ETSA 241700Z 2418/2506 19008KT 9999 NSW BKN100 BY ETGL

Observations et prévisions météorologiques de plus de 4000 aéroports (messages METAR et TAF).

Les stations disponibles sont représentées par des disques jaunes et rouges sur la carte.

Passer la souris dessus pour voir le nom de la station.

Cliquer dessus pour voir les observations et prévisions météorologiques.

Pour changer de carte: cliquez sur les boutons verts avec une croix noire pour zoomer, sur le bouton vert avec un tiret pour effectuer un zoom arrière, ou sur les flèches vertes pour les cartes adjacentes.


METAR-TAF: